»·PEaware :: N145BE KSBA-KBUR

N145BE :: KSBA-KBUR

FLIGHT INFORMATION

Flight Status: Arrived
Operator: Privately registered:
United States
More flights under this callsign
Pilot: Santiago S. (22950)
Aircraft: BEECH AIRCRAFT BARON
(BE58)
More flights by this aircraft type
Origin: KSBA Santa Barbara Mun
United States
Destination: KBUR Bob Hope-Burbank
United States
More flights between these airports :: More routes between these airports
Route: +
File this flight plan on PilotEdge
Remarks: Cat 8
Altitude:
(Current/Filed)
7,500ft
Speed:
(Current/Filed)
170kts
Departed: 04-Feb-19 03:27 PM
Arrived: 04-Feb-19 04:15 PM
Distance/Time
Traveled:
75nm/0:47
Distance/Time
To Go:
Arrived

Flight Plot

Page will automatically refresh every two minutes.


Map Options




Map Legend


Flown Route
Filed Route
Departure Airport
Arrival Airport
Navaid (VOR, NDB)
Fix

Horizontal Profiles

Position Reports

Time Latitude Longitude Heading Altitude Ground
Speed
04-Feb-19 15:08 34.424257 -119.836924 105 0ft 0kts
04-Feb-19 15:09 34.424257 -119.836924 105 0ft 0kts
04-Feb-19 15:10 34.424257 -119.836924 105 0ft 0kts
04-Feb-19 15:11 34.424257 -119.836924 105 0ft 0kts
04-Feb-19 15:12 34.424257 -119.836924 105 0ft 0kts
04-Feb-19 15:13 34.424120 -119.837357 261 0ft 0kts
04-Feb-19 15:14 34.425984 -119.838167 345 0ft 22kts
04-Feb-19 15:15 34.426710 -119.838705 282 0ft 0kts
04-Feb-19 15:16 34.426710 -119.838705 282 0ft 0kts
04-Feb-19 15:17 34.426695 -119.841211 298 1ft 0kts
04-Feb-19 15:21 34.424051 -119.836811 78 0ft 0kts
04-Feb-19 15:22 34.424051 -119.836811 78 0ft 0kts
04-Feb-19 15:23 34.425549 -119.837976 338 0ft 21kts
04-Feb-19 15:24 34.427145 -119.835298 354 0ft 0kts
04-Feb-19 15:25 34.427145 -119.835298 354 0ft 0kts
04-Feb-19 15:26 34.427744 -119.846766 273 23ft 120kts
04-Feb-19 15:27 34.425301 -119.883490 263 514ft 157kts
04-Feb-19 15:28 34.424404 -119.892834 263 708ft 157kts
04-Feb-19 15:29 34.422269 -119.915042 263 1163ft 156kts
04-Feb-19 15:30 34.418461 -119.954777 263 1612ft 173kts
04-Feb-19 15:31 34.413570 -120.000750 249 1651ft 184kts
04-Feb-19 15:32 34.386620 -120.007689 117 2472ft 152kts
04-Feb-19 15:33 34.401125 -119.983159 46 3414ft 138kts
04-Feb-19 15:34 34.398910 -119.950845 105 4209ft 137kts
04-Feb-19 15:35 34.394792 -119.914426 95 5098ft 136kts
04-Feb-19 15:36 34.391824 -119.879480 95 5905ft 135kts
04-Feb-19 15:37 34.388902 -119.845637 97 6735ft 131kts
04-Feb-19 15:38 34.385245 -119.813309 97 7531ft 130kts
04-Feb-19 15:39 34.381142 -119.777404 97 7628ft 166kts
04-Feb-19 15:40 34.376380 -119.735533 97 7621ft 179kts
04-Feb-19 15:41 34.371688 -119.697460 99 7619ft 183kts
04-Feb-19 15:42 34.366152 -119.651410 98 7618ft 184kts
04-Feb-19 15:43 34.360948 -119.608773 98 7618ft 185kts
04-Feb-19 15:44 34.355561 -119.565013 98 7618ft 185kts
04-Feb-19 15:45 34.350340 -119.522775 98 7618ft 185kts
04-Feb-19 15:46 34.344868 -119.478656 98 7618ft 185kts
04-Feb-19 15:47 34.339130 -119.432534 98 7618ft 185kts
04-Feb-19 15:48 34.333381 -119.386469 98 7618ft 185kts
04-Feb-19 15:50 34.327890 -119.342604 98 7618ft 185kts
04-Feb-19 15:51 34.322665 -119.300985 98 7618ft 185kts
04-Feb-19 15:52 34.317116 -119.256915 98 7618ft 185kts
04-Feb-19 15:53 34.311430 -119.211892 98 7618ft 185kts
04-Feb-19 15:54 34.305896 -119.168200 98 7618ft 185kts
04-Feb-19 15:55 34.300341 -119.124470 98 7618ft 185kts
04-Feb-19 15:56 34.294941 -119.082090 98 7618ft 185kts
04-Feb-19 15:57 34.289269 -119.037698 98 7618ft 185kts
04-Feb-19 15:58 34.283472 -118.992467 98 7618ft 185kts
04-Feb-19 15:59 34.277436 -118.945482 98 7618ft 185kts
04-Feb-19 16:00 34.271851 -118.901744 98 7609ft 186kts
04-Feb-19 16:01 34.266700 -118.860917 98 7609ft 185kts
04-Feb-19 16:02 34.261487 -118.820548 99 7609ft 185kts
04-Feb-19 16:03 34.256001 -118.778301 99 7609ft 185kts
04-Feb-19 16:04 34.250027 -118.732430 99 7609ft 185kts
04-Feb-19 16:05 34.243801 -118.684771 99 7609ft 185kts
04-Feb-19 16:06 34.237703 -118.638232 99 7609ft 186kts
04-Feb-19 16:07 34.231603 -118.591854 99 7172ft 201kts
04-Feb-19 16:08 34.225405 -118.544847 99 6704ft 204kts
04-Feb-19 16:08 34.220515 -118.507828 98 6149ft 189kts
04-Feb-19 16:09 34.215209 -118.467717 99 5401ft 174kts
04-Feb-19 16:11 34.219554 -118.423357 72 3876ft 156kts
04-Feb-19 16:12 34.225049 -118.394487 86 2203ft 102kts
04-Feb-19 16:12 34.224414 -118.374221 97 1417ft 107kts
04-Feb-19 16:13 34.212804 -118.360905 165 46ft 104kts
04-Feb-19 16:14 34.206155 -118.359465 253 0ft 0kts
04-Feb-19 16:16 34.206131 -118.359568 254 0ft 5kts
04-Feb-19 16:16 34.204657 -118.359966 262 0ft 0kts

Navigation Log

Ident Type
Flight plan parsing failed, navigation log unavailable